Time;durP1;ratioP1;P1;durP2;ratioP2;P2;SDS_P1;SDS_P2;PMS_P1;PMS_P2;Temp;Humidity;BMP_temperature;BMP_pressure;BME280_temperature;BME280_humidity;BME280_pressure;Samples;Min_cycle;Max_cycle;Signal;HPM_P1;HPM_P2
2022/11/15 00:00:34;;;;;;;3.30;2.70;;;11.20;99.90;;;;;;5012033;28;20226;-81
2022/11/15 00:02:59;;;;;;;3.07;2.50;;;11.10;99.90;;;;;;4995455;28;20171;-77
2022/11/15 00:05:25;;;;;;;3.20;2.73;;;11.20;99.90;;;;;;5013179;28;20213;-81
2022/11/15 00:07:50;;;;;;;2.90;2.60;;;11.20;99.90;;;;;;5012018;28;20593;-81
2022/11/15 00:10:16;;;;;;;4.50;2.50;;;11.10;99.90;;;;;;5012180;28;20571;-81
2022/11/15 00:12:42;;;;;;;3.57;2.60;;;11.20;99.90;;;;;;5012655;28;20182;-81
2022/11/15 00:15:08;;;;;;;3.77;3.00;;;11.20;99.90;;;;;;5019672;28;20206;-81
2022/11/15 00:17:33;;;;;;;3.63;2.50;;;11.20;99.90;;;;;;5012965;28;20179;-81
2022/11/15 00:19:59;;;;;;;3.10;2.60;;;11.20;99.90;;;;;;4995314;28;20256;-81
2022/11/15 00:22:24;;;;;;;4.27;2.80;;;11.20;99.90;;;;;;4995462;28;20545;-81
2022/11/15 00:24:50;;;;;;;5.20;2.70;;;11.20;99.90;;;;;;5012484;28;20187;-81
2022/11/15 00:27:15;;;;;;;2.73;2.40;;;11.20;99.90;;;;;;5012546;28;20167;-81
2022/11/15 00:29:43;;;;;;;4.23;2.70;;;11.30;99.90;;;;;;4995112;28;20179;-81
2022/11/15 00:32:11;;;;;;;4.83;2.87;;;11.20;99.90;;;;;;5012674;28;20600;-81
2022/11/15 00:34:37;;;;;;;4.30;2.77;;;11.30;99.90;;;;;;4995248;28;20284;-81
2022/11/15 00:37:02;;;;;;;4.03;2.60;;;11.20;99.90;;;;;;5012818;28;20202;-80
2022/11/15 00:39:28;;;;;;;3.73;2.73;;;11.20;99.90;;;;;;5012871;28;20199;-81
2022/11/15 00:41:53;;;;;;;3.50;2.73;;;11.30;99.90;;;;;;4995254;28;20178;-81
2022/11/15 00:44:19;;;;;;;5.37;2.73;;;11.20;99.90;;;;;;4994956;28;20198;-81
2022/11/15 00:46:44;;;;;;;3.77;2.70;;;11.20;99.90;;;;;;4995199;28;20175;-80
2022/11/15 00:49:10;;;;;;;3.20;2.77;;;11.20;99.90;;;;;;5012508;28;20175;-81
2022/11/15 00:51:35;;;;;;;5.37;2.83;;;11.10;99.90;;;;;;4995799;28;20182;-81
2022/11/15 00:54:01;;;;;;;4.50;3.30;;;11.10;99.90;;;;;;5039740;22;20206;-82
2022/11/15 00:56:26;;;;;;;3.03;2.73;;;11.10;99.90;;;;;;5030647;28;20281;-82
2022/11/15 00:58:52;;;;;;;3.20;2.50;;;11.10;99.90;;;;;;5032030;28;20202;-82
2022/11/15 01:01:18;;;;;;;3.53;2.70;;;11.10;99.90;;;;;;5014561;28;20224;-82
2022/11/15 01:03:44;;;;;;;5.47;2.93;;;11.10;99.90;;;;;;5014101;28;20174;-82
2022/11/15 01:06:10;;;;;;;3.77;2.73;;;11.20;99.90;;;;;;5014243;28;20190;-82
2022/11/15 01:08:36;;;;;;;3.80;2.67;;;11.20;99.90;;;;;;5031854;28;20181;-82
2022/11/15 01:11:10;;;;;;;2.93;2.63;;;11.20;99.90;;;;;;5031949;28;20178;-82
2022/11/15 01:13:37;;;;;;;5.57;3.10;;;11.20;99.90;;;;;;5014149;28;20174;-84
2022/11/15 01:16:16;;;;;;;5.10;2.97;;;11.20;99.90;;;;;;5014283;28;20664;-82
2022/11/15 01:18:43;;;;;;;3.00;2.70;;;11.10;99.90;;;;;;5031885;28;20185;-83
2022/11/15 01:21:11;;;;;;;3.53;2.80;;;11.10;99.90;;;;;;5014103;28;20175;-82
2022/11/15 01:23:37;;;;;;;3.70;2.90;;;11.10;99.90;;;;;;5031532;28;20170;-84
2022/11/15 01:26:05;;;;;;;3.20;2.77;;;11.10;99.90;;;;;;5014173;28;20277;-82
2022/11/15 01:28:36;;;;;;;3.93;2.67;;;11.10;99.90;;;;;;5014267;28;20645;-83
2022/11/15 01:31:04;;;;;;;3.67;2.90;;;11.00;99.90;;;;;;5014136;28;20253;-82
2022/11/15 01:33:30;;;;;;;3.13;2.80;;;11.00;99.90;;;;;;5031462;28;20201;-83
2022/11/15 01:35:56;;;;;;;5.10;2.77;;;11.00;99.90;;;;;;5013792;28;20197;-82
2022/11/15 01:38:22;;;;;;;3.00;2.70;;;10.90;99.90;;;;;;5016160;28;20242;-82
2022/11/15 01:40:48;;;;;;;4.97;2.77;;;10.80;99.90;;;;;;5035510;28;20206;-82
2022/11/15 01:43:23;;;;;;;5.30;3.47;;;10.70;99.90;;;;;;5035304;28;20178;-82
2022/11/15 01:45:55;;;;;;;4.70;3.13;;;10.70;99.90;;;;;;5035362;28;20247;-82
2022/11/15 01:48:22;;;;;;;3.03;2.60;;;10.60;99.90;;;;;;5017483;28;20242;-82
2022/11/15 01:50:48;;;;;;;3.40;2.87;;;10.60;99.90;;;;;;5035496;28;20251;-82
2022/11/15 01:53:15;;;;;;;4.13;2.87;;;10.50;99.90;;;;;;5017291;28;20655;-82
2022/11/15 01:55:41;;;;;;;4.97;2.93;;;10.60;99.90;;;;;;5017406;28;20214;-82
2022/11/15 01:58:07;;;;;;;3.40;2.77;;;10.50;99.90;;;;;;5017547;28;20269;-82
2022/11/15 02:00:33;;;;;;;5.43;2.93;;;10.50;99.90;;;;;;5035079;28;20202;-82
2022/11/15 02:02:59;;;;;;;4.47;3.10;;;10.40;99.90;;;;;;5035041;28;20178;-82
2022/11/15 02:05:24;;;;;;;4.13;2.97;;;10.50;99.90;;;;;;5017060;28;20195;-82
2022/11/15 02:07:51;;;;;;;3.43;2.63;;;10.60;99.90;;;;;;5017342;28;20675;-84
2022/11/15 02:10:22;;;;;;;4.37;3.03;;;10.60;99.90;;;;;;5017494;28;20280;-83
2022/11/15 02:12:48;;;;;;;4.53;2.80;;;10.70;99.90;;;;;;5017205;28;20184;-82
2022/11/15 02:15:15;;;;;;;5.50;2.97;;;10.80;99.90;;;;;;5034725;28;20194;-82
2022/11/15 02:18:38;;;;;;;3.27;2.70;;;10.80;99.90;;;;;;5035246;28;20185;-81
2022/11/15 02:21:14;;;;;;;4.13;2.57;;;10.80;99.90;;;;;;4938204;29;20189;-82
2022/11/15 02:24:22;;;;;;;3.40;2.80;;;10.80;99.90;;;;;;4954010;29;20639;-82
2022/11/15 02:27:09;;;;;;;4.00;2.90;;;10.80;99.90;;;;;;5021278;28;20652;-82
2022/11/15 02:29:59;;;;;;;3.50;2.63;;;10.90;99.90;;;;;;5046128;28;20174;-82
2022/11/15 02:32:48;;;;;;;4.23;2.83;;;10.90;99.90;;;;;;5036899;28;20205;-82
2022/11/15 02:35:43;;;;;;;4.33;2.70;;;10.80;99.90;;;;;;5036528;28;20236;-83
2022/11/15 02:38:29;;;;;;;4.17;3.00;;;10.80;99.90;;;;;;5036508;28;20192;-82
2022/11/15 02:41:03;;;;;;;3.13;2.40;;;10.80;99.90;;;;;;5036634;28;20202;-82
2022/11/15 02:43:56;;;;;;;4.17;2.73;;;10.80;99.90;;;;;;5036397;28;20180;-82
2022/11/15 02:49:31;;;;;;;3.00;2.53;;;10.80;99.90;;;;;;5054106;28;20226;-82
2022/11/15 02:51:56;;;;;;;3.83;2.90;;;10.70;99.90;;;;;;5036223;28;20178;-82
2022/11/15 02:54:32;;;;;;;3.57;2.70;;;10.70;99.90;;;;;;5035940;28;20565;-84
2022/11/15 02:57:05;;;;;;;3.50;2.67;;;10.70;99.90;;;;;;5036169;28;20535;-82
2022/11/15 02:59:43;;;;;;;3.00;2.50;;;10.60;99.90;;;;;;5036053;28;20212;-82
2022/11/15 03:02:29;;;;;;;3.73;2.60;;;10.60;99.90;;;;;;5036083;28;20178;-82
2022/11/15 03:05:15;;;;;;;3.07;2.67;;;10.70;99.90;;;;;;5035711;28;20679;-83
2022/11/15 03:07:47;;;;;;;2.80;2.60;;;10.80;99.90;;;;;;5036285;28;20238;-82
2022/11/15 03:10:53;;;;;;;3.53;2.60;;;10.80;99.90;;;;;;5036096;28;20185;-82
2022/11/15 03:13:38;;;;;;;5.50;2.73;;;10.70;99.90;;;;;;5019690;28;20558;-83
2022/11/15 03:16:23;;;;;;;4.23;2.90;;;10.60;99.90;;;;;;5038917;28;20201;-82
2022/11/15 03:19:12;;;;;;;3.50;2.40;;;10.60;99.90;;;;;;5035882;28;20185;-83
2022/11/15 03:21:40;;;;;;;3.93;2.57;;;10.50;99.90;;;;;;5035830;28;20177;-82
2022/11/15 03:24:08;;;;;;;3.60;2.60;;;10.50;99.90;;;;;;5052910;28;20173;-82
2022/11/15 03:26:36;;;;;;;3.23;2.63;;;10.40;99.90;;;;;;5035816;28;20212;-84
2022/11/15 03:29:19;;;;;;;3.33;2.53;;;10.40;99.90;;;;;;5053307;28;20204;-82
2022/11/15 03:31:50;;;;;;;4.07;2.50;;;10.50;99.90;;;;;;5035678;28;20185;-82
2022/11/15 03:34:49;;;;;;;4.67;2.77;;;10.60;99.90;;;;;;5035250;28;20330;-83
2022/11/15 03:37:17;;;;;;;3.03;2.50;;;10.60;99.90;;;;;;5035267;28;20213;-82
2022/11/15 03:39:43;;;;;;;3.53;2.57;;;10.50;99.90;;;;;;5035138;28;20212;-82
2022/11/15 03:42:35;;;;;;;3.63;2.80;;;10.40;99.90;;;;;;5035225;28;20181;-82
2022/11/15 03:45:26;;;;;;;2.90;2.60;;;10.40;99.90;;;;;;5052706;28;20182;-82
2022/11/15 03:48:21;;;;;;;3.83;2.70;;;10.20;99.90;;;;;;5035456;28;20178;-82
2022/11/15 03:50:47;;;;;;;5.00;2.87;;;10.20;99.90;;;;;;5035027;28;20224;-83
2022/11/15 03:53:13;;;;;;;3.77;2.67;;;10.20;99.90;;;;;;5034775;28;20178;-82
2022/11/15 03:55:39;;;;;;;3.57;2.73;;;10.10;99.90;;;;;;5034896;28;20307;-82
2022/11/15 03:58:04;;;;;;;2.90;2.60;;;10.10;99.90;;;;;;5053010;28;20205;-82
2022/11/15 04:00:30;;;;;;;3.00;2.63;;;10.10;99.90;;;;;;5034181;28;20211;-82
2022/11/15 04:02:56;;;;;;;2.83;2.50;;;10.10;99.90;;;;;;5052557;28;20174;-82
2022/11/15 04:05:21;;;;;;;2.57;2.37;;;10.00;99.90;;;;;;5052448;28;20189;-82
2022/11/15 04:07:47;;;;;;;6.00;2.70;;;10.00;99.90;;;;;;5034833;28;20628;-83
2022/11/15 04:10:13;;;;;;;3.50;2.40;;;10.10;99.90;;;;;;5034843;28;20608;-82
2022/11/15 04:12:42;;;;;;;3.20;2.43;;;10.00;99.90;;;;;;5052527;28;20180;-82
2022/11/15 04:15:11;;;;;;;4.17;2.47;;;10.10;99.90;;;;;;5034605;28;20284;-82
2022/11/15 04:17:42;;;;;;;4.60;2.40;;;10.20;99.90;;;;;;5034521;28;20238;-82
2022/11/15 04:26:00;;;;;;;3.57;2.40;;;10.20;99.90;;;;;;5052620;28;20239;-82
2022/11/15 04:28:25;;;;;;;3.23;2.60;;;10.10;99.90;;;;;;5052209;28;20174;-82
2022/11/15 04:30:51;;;;;;;3.60;2.43;;;10.00;99.90;;;;;;5034418;28;20269;-82
2022/11/15 04:33:17;;;;;;;4.17;2.60;;;9.90;99.90;;;;;;5034280;28;20549;-82
2022/11/15 04:35:43;;;;;;;3.47;2.40;;;9.80;99.90;;;;;;5034257;28;20243;-83
2022/11/15 04:38:10;;;;;;;2.63;2.07;;;9.70;99.90;;;;;;5052266;28;20173;-84
2022/11/15 04:40:37;;;;;;;3.03;2.37;;;9.60;99.90;;;;;;5052133;28;20197;-82
2022/11/15 04:43:03;;;;;;;3.80;2.60;;;9.60;99.90;;;;;;5051781;28;20234;-83
2022/11/15 04:45:28;;;;;;;3.80;2.53;;;9.50;99.90;;;;;;5034039;28;20290;-82
2022/11/15 04:47:54;;;;;;;3.60;2.33;;;9.50;99.90;;;;;;5034112;28;20173;-82
2022/11/15 04:50:19;;;;;;;3.60;2.83;;;9.50;99.90;;;;;;5052079;28;20174;-82
2022/11/15 04:52:53;;;;;;;4.10;2.40;;;9.50;99.90;;;;;;5034214;28;20174;-83
2022/11/15 04:55:20;;;;;;;2.43;2.23;;;9.40;99.90;;;;;;5051818;28;20294;-83
2022/11/15 04:57:45;;;;;;;3.80;2.20;;;9.30;99.90;;;;;;5051842;28;20181;-82
2022/11/15 05:00:13;;;;;;;3.30;2.40;;;9.20;99.90;;;;;;5051817;28;20201;-82
2022/11/15 05:05:24;;;;;;;3.70;2.50;;;9.10;99.90;;;;;;5051756;28;20199;-82
2022/11/15 05:07:50;;;;;;;2.60;2.23;;;9.00;99.90;;;;;;5051892;28;20196;-82
2022/11/15 05:10:15;;;;;;;5.33;2.80;;;8.90;99.90;;;;;;5051675;28;20172;-82
2022/11/15 05:12:41;;;;;;;3.67;2.17;;;8.90;99.90;;;;;;5036819;28;20543;-82
2022/11/15 05:15:07;;;;;;;4.37;2.63;;;8.80;99.90;;;;;;5038018;28;20196;-82
2022/11/15 05:17:34;;;;;;;3.23;2.43;;;8.70;99.90;;;;;;5037752;28;20176;-82
2022/11/15 05:19:59;;;;;;;2.77;2.50;;;8.70;99.90;;;;;;5055710;28;20208;-82
2022/11/15 05:22:25;;;;;;;4.00;2.53;;;8.60;99.90;;;;;;5055660;28;20252;-82
2022/11/15 05:24:51;;;;;;;2.40;2.20;;;8.60;99.90;;;;;;5037480;28;20194;-82
2022/11/15 05:27:16;;;;;;;2.90;2.23;;;8.50;99.90;;;;;;5037794;28;20173;-84
2022/11/15 05:29:42;;;;;;;3.83;2.50;;;8.30;99.90;;;;;;5037690;28;20188;-82
2022/11/15 05:32:08;;;;;;;3.20;2.23;;;8.20;99.90;;;;;;5055544;28;20556;-83
2022/11/15 05:34:34;;;;;;;2.93;2.20;;;8.30;99.90;;;;;;5055370;28;20575;-83
2022/11/15 05:37:00;;;;;;;2.83;2.27;;;8.30;99.90;;;;;;5055491;28;20173;-83
2022/11/15 05:39:26;;;;;;;4.73;2.10;;;8.30;99.90;;;;;;5037369;28;20204;-82
2022/11/15 05:42:00;;;;;;;3.23;2.63;;;8.20;99.90;;;;;;5037604;28;20176;-82
2022/11/15 05:44:27;;;;;;;3.33;2.17;;;8.10;99.90;;;;;;5055261;28;20219;-82
2022/11/15 05:46:55;;;;;;;4.37;2.27;;;8.00;99.90;;;;;;5037505;28;20211;-81
2022/11/15 05:49:25;;;;;;;2.83;2.20;;;8.00;99.90;;;;;;5037614;28;20184;-81
2022/11/15 05:51:52;;;;;;;3.13;2.55;;;8.00;99.90;;;;;;5035483;28;20411;-81
2022/11/15 05:54:19;;;;;;;2.67;2.43;;;8.00;99.90;;;;;;5017597;28;20225;-81
2022/11/15 05:56:45;;;;;;;3.30;2.47;;;7.90;99.90;;;;;;5018591;28;20179;-81
2022/11/15 05:59:11;;;;;;;2.90;2.53;;;7.90;99.90;;;;;;5018124;28;20213;-81
2022/11/15 06:01:38;;;;;;;2.93;2.50;;;7.80;99.90;;;;;;5035794;28;20197;-81
2022/11/15 06:04:04;;;;;;;3.70;2.43;;;7.70;99.90;;;;;;5017417;28;20184;-82
2022/11/15 06:06:29;;;;;;;3.50;2.50;;;7.70;99.90;;;;;;5017647;28;20267;-81
2022/11/15 06:08:55;;;;;;;4.30;2.60;;;7.60;99.90;;;;;;5017951;28;20169;-79
2022/11/15 06:11:20;;;;;;;3.60;3.10;;;7.50;99.90;;;;;;5018077;28;20176;-82
2022/11/15 06:13:46;;;;;;;3.90;3.50;;;7.50;99.90;;;;;;5017824;28;20177;-82
2022/11/15 06:16:11;;;;;;;4.23;2.70;;;7.50;99.90;;;;;;5018362;28;20188;-82
2022/11/15 06:18:37;;;;;;;5.00;2.70;;;7.80;99.90;;;;;;5036246;28;20263;-81
2022/11/15 06:21:04;;;;;;;3.03;2.50;;;8.20;99.90;;;;;;5019076;28;20585;-80
2022/11/15 06:23:32;;;;;;;3.97;2.80;;;8.50;99.90;;;;;;5018327;28;20205;-81
2022/11/15 06:25:59;;;;;;;3.73;2.87;;;9.00;99.90;;;;;;5037836;28;20216;-81
2022/11/15 06:28:27;;;;;;;3.90;3.07;;;9.30;99.90;;;;;;5019624;28;20181;-82
2022/11/15 06:30:53;;;;;;;3.00;2.70;;;9.40;99.90;;;;;;5017451;28;20239;-82
2022/11/15 06:33:18;;;;;;;3.60;2.93;;;9.50;99.90;;;;;;5017078;28;20182;-82
2022/11/15 06:35:44;;;;;;;4.20;3.17;;;9.60;99.90;;;;;;5017289;28;20196;-82
2022/11/15 06:38:10;;;;;;;6.27;3.70;;;9.30;99.90;;;;;;5017173;28;20195;-84
2022/11/15 06:40:37;;;;;;;4.77;3.17;;;9.00;99.90;;;;;;5016893;28;20680;-83
2022/11/15 06:43:03;;;;;;;3.67;3.13;;;8.90;99.90;;;;;;5034586;28;20210;-81
2022/11/15 06:45:29;;;;;;;3.93;2.70;;;8.80;99.90;;;;;;5017254;28;20204;-83
2022/11/15 06:47:55;;;;;;;5.00;2.60;;;8.70;99.90;;;;;;5034917;28;20176;-84
2022/11/15 06:50:20;;;;;;;5.13;3.00;;;8.60;99.90;;;;;;5017145;28;20234;-83
2022/11/15 06:52:46;;;;;;;4.47;3.17;;;8.60;99.90;;;;;;5034474;28;20546;-83
2022/11/15 06:55:12;;;;;;;3.87;3.00;;;8.60;99.90;;;;;;5096448;23;20223;-82
2022/11/15 06:57:45;;;;;;;4.67;3.07;;;8.60;99.90;;;;;;5054621;28;20177;-82
2022/11/15 07:00:11;;;;;;;5.10;3.07;;;8.50;99.90;;;;;;5056457;28;20667;-82
2022/11/15 07:02:37;;;;;;;4.03;3.07;;;8.50;99.90;;;;;;5054425;28;20174;-84
2022/11/15 07:05:02;;;;;;;3.83;2.67;;;8.50;99.90;;;;;;5047866;28;20201;-83
2022/11/15 07:07:28;;;;;;;3.50;2.80;;;8.50;99.90;;;;;;5033650;28;20182;-82
2022/11/15 07:09:54;;;;;;;6.10;3.43;;;8.60;99.90;;;;;;5033734;28;20179;-82
2022/11/15 07:12:19;;;;;;;4.13;3.20;;;8.70;99.90;;;;;;5035157;28;20546;-82
2022/11/15 07:14:45;;;;;;;4.53;2.97;;;8.60;99.90;;;;;;5035010;28;20211;-83
2022/11/15 07:17:10;;;;;;;4.50;2.87;;;8.60;99.90;;;;;;5032722;28;20182;-81
2022/11/15 07:19:36;;;;;;;4.50;3.00;;;8.60;99.90;;;;;;5033472;28;20194;-83
2022/11/15 07:22:01;;;;;;;3.07;2.77;;;8.60;99.90;;;;;;5035147;28;20265;-82
2022/11/15 07:24:27;;;;;;;3.33;3.03;;;8.50;99.90;;;;;;5033205;28;20208;-83
2022/11/15 07:26:52;;;;;;;4.33;2.90;;;8.50;99.90;;;;;;5034675;28;20545;-81
2022/11/15 07:29:18;;;;;;;4.23;3.00;;;8.50;99.90;;;;;;5033642;28;20196;-82
2022/11/15 07:31:43;;;;;;;3.40;2.87;;;8.50;99.90;;;;;;5033610;28;20178;-83
2022/11/15 07:34:09;;;;;;;3.40;2.90;;;8.40;99.90;;;;;;5034601;28;20304;-82
2022/11/15 07:36:35;;;;;;;4.97;2.90;;;8.40;99.90;;;;;;5035587;28;20564;-82
2022/11/15 07:39:01;;;;;;;3.40;2.80;;;8.40;99.90;;;;;;5051256;28;20282;-82
2022/11/15 07:41:26;;;;;;;4.60;3.10;;;8.40;99.90;;;;;;5051771;28;20182;-82
2022/11/15 07:43:52;;;;;;;3.80;2.90;;;8.30;99.90;;;;;;5034954;28;20606;-82
2022/11/15 07:46:18;;;;;;;4.27;3.00;;;8.20;99.90;;;;;;5036412;28;20203;-81
2022/11/15 07:48:43;;;;;;;4.53;3.10;;;8.20;99.90;;;;;;5038018;28;20178;-81
2022/11/15 07:51:14;;;;;;;4.83;2.93;;;8.50;99.90;;;;;;5036049;28;20177;-83
2022/11/15 07:53:39;;;;;;;4.13;3.00;;;9.00;99.90;;;;;;5039674;28;20611;-82
2022/11/15 07:56:08;;;;;;;4.60;2.90;;;9.30;99.90;;;;;;5040318;28;20221;-82
2022/11/15 07:58:33;;;;;;;3.87;2.80;;;9.30;99.90;;;;;;5039080;28;20192;-82
2022/11/15 08:01:03;;;;;;;5.07;3.10;;;9.10;99.90;;;;;;5038633;28;20201;-81
2022/11/15 08:03:29;;;;;;;4.10;2.90;;;9.00;99.90;;;;;;5041345;28;20674;-82
2022/11/15 08:05:55;;;;;;;6.10;2.93;;;9.00;99.90;;;;;;5040055;28;20197;-82
2022/11/15 08:08:20;;;;;;;4.80;2.80;;;9.00;99.90;;;;;;5042219;28;20591;-81
2022/11/15 08:10:46;;;;;;;5.50;3.07;;;9.10;99.90;;;;;;5041215;28;20252;-82
2022/11/15 08:13:12;;;;;;;3.43;2.40;;;9.20;99.90;;;;;;5040883;28;20250;-82
2022/11/15 08:15:38;;;;;;;5.50;2.93;;;9.40;99.90;;;;;;5043424;28;20206;-82
2022/11/15 08:18:09;;;;;;;4.37;3.07;;;9.50;99.90;;;;;;5042769;28;20285;-82
2022/11/15 08:20:35;;;;;;;3.77;2.77;;;9.70;99.90;;;;;;5038885;28;20222;-81
2022/11/15 08:23:03;;;;;;;4.60;3.23;;;9.90;99.90;;;;;;5041331;28;20652;-80
2022/11/15 08:25:30;;;;;;;4.50;3.20;;;10.00;99.90;;;;;;5037975;28;20207;-82
2022/11/15 08:27:58;;;;;;;5.10;3.30;;;10.10;99.90;;;;;;5040202;28;20632;-82
2022/11/15 08:30:24;;;;;;;6.10;3.23;;;10.20;99.90;;;;;;5045208;28;20189;-83
2022/11/15 08:32:51;;;;;;;6.27;3.77;;;10.30;99.90;;;;;;5031827;28;20612;-81
2022/11/15 08:35:18;;;;;;;5.30;3.50;;;10.40;99.90;;;;;;5035501;28;20205;-81
2022/11/15 08:37:43;;;;;;;4.63;3.60;;;10.60;99.90;;;;;;5034393;28;20178;-81
2022/11/15 08:40:09;;;;;;;4.00;2.80;;;10.70;99.90;;;;;;5033888;28;20734;-82
2022/11/15 08:42:36;;;;;;;4.20;2.90;;;10.80;99.90;;;;;;5035756;28;20182;-81
2022/11/15 08:45:01;;;;;;;3.27;2.60;;;11.00;99.90;;;;;;5035049;28;20194;-81
2022/11/15 08:47:27;;;;;;;3.10;2.50;;;11.10;99.90;;;;;;5034494;28;20182;-81
2022/11/15 08:49:53;;;;;;;3.83;2.60;;;11.20;99.90;;;;;;5035434;28;20269;-81
2022/11/15 08:52:19;;;;;;;3.47;2.77;;;11.30;99.90;;;;;;5037089;28;20182;-83
2022/11/15 08:54:44;;;;;;;4.00;2.70;;;11.50;99.90;;;;;;5034985;28;20197;-81
2022/11/15 08:57:10;;;;;;;3.90;2.80;;;11.60;99.90;;;;;;5035062;28;20189;-81
2022/11/15 08:59:36;;;;;;;3.40;2.30;;;11.70;99.90;;;;;;5037858;28;20217;-81
2022/11/15 09:02:03;;;;;;;3.73;2.50;;;11.90;99.90;;;;;;5053296;28;20228;-82
2022/11/15 09:04:28;;;;;;;2.60;2.20;;;12.00;99.90;;;;;;5035833;28;20655;-81
2022/11/15 09:06:54;;;;;;;6.03;2.40;;;12.20;99.90;;;;;;5036700;28;20222;-82
2022/11/15 09:09:19;;;;;;;3.23;2.53;;;12.30;99.90;;;;;;5037102;28;20273;-82
2022/11/15 09:11:45;;;;;;;3.13;2.30;;;12.30;99.90;;;;;;5037338;28;20656;-82
2022/11/15 09:14:12;;;;;;;2.63;2.20;;;12.30;99.90;;;;;;5036329;28;20666;-81
2022/11/15 09:16:38;;;;;;;2.40;2.20;;;12.40;99.90;;;;;;5036901;28;20221;-82
2022/11/15 09:19:03;;;;;;;3.67;2.20;;;12.50;99.90;;;;;;5037180;28;20174;-83
2022/11/15 09:21:30;;;;;;;2.67;2.10;;;12.60;99.90;;;;;;5037756;28;20668;-82
2022/11/15 09:23:56;;;;;;;3.10;2.10;;;12.70;99.90;;;;;;5039773;28;20643;-81
2022/11/15 09:26:21;;;;;;;3.00;2.10;;;12.80;99.90;;;;;;5039599;28;20285;-81
2022/11/15 09:28:47;;;;;;;3.93;2.20;;;12.90;99.90;;;;;;5038481;28;20170;-81
2022/11/15 09:31:12;;;;;;;3.27;2.30;;;13.00;99.90;;;;;;5039900;28;20170;-82
2022/11/15 09:33:38;;;;;;;3.23;2.40;;;13.10;99.90;;;;;;5035048;28;20183;-82
2022/11/15 09:36:07;;;;;;;4.07;2.20;;;13.30;99.90;;;;;;5036732;28;20195;-82
2022/11/15 09:38:33;;;;;;;5.27;2.40;;;13.40;99.90;;;;;;5035097;28;20265;-82
2022/11/15 09:41:14;;;;;;;4.13;2.27;;;13.60;99.90;;;;;;5035237;28;20198;-82
2022/11/15 09:44:16;;;;;;;2.93;2.30;;;13.70;99.90;;;;;;5034878;28;20182;-81
2022/11/15 09:47:16;;;;;;;3.00;2.00;;;13.90;99.90;;;;;;5034639;28;20664;-81
2022/11/15 09:49:42;;;;;;;4.23;2.70;;;13.90;99.90;;;;;;5035009;28;20182;-81
2022/11/15 09:52:09;;;;;;;8.63;5.00;;;14.00;99.90;;;;;;5035162;28;20233;-81
2022/11/15 09:54:36;;;;;;;9.03;5.00;;;14.10;99.90;;;;;;5036775;28;20655;-81
2022/11/15 09:57:09;;;;;;;5.73;3.60;;;14.30;99.90;;;;;;5037552;28;20178;-82
2022/11/15 10:00:01;;;;;;;3.00;2.30;;;14.50;99.90;;;;;;5038607;28;20660;-81
2022/11/15 10:02:32;;;;;;;2.47;2.27;;;14.50;99.90;;;;;;5040497;28;20715;-81
2022/11/15 10:05:00;;;;;;;2.77;2.40;;;14.30;99.90;;;;;;5038460;28;20256;-81
2022/11/15 10:07:46;;;;;;;2.33;2.13;;;14.20;99.90;;;;;;5056044;28;20175;-81
2022/11/15 10:10:46;;;;;;;3.70;2.00;;;14.10;99.90;;;;;;5040156;28;20198;-81
2022/11/15 10:13:26;;;;;;;3.67;2.20;;;14.10;99.90;;;;;;5037429;28;20191;-82
2022/11/15 10:15:54;;;;;;;3.40;2.20;;;14.10;99.90;;;;;;5038591;28;20206;-83
2022/11/15 10:18:34;;;;;;;3.93;2.10;;;14.20;99.90;;;;;;5040353;28;20178;-81
2022/11/15 10:21:12;;;;;;;2.67;2.00;;;14.30;99.90;;;;;;5039784;28;20213;-81
2022/11/15 10:23:38;;;;;;;2.97;2.10;;;14.30;99.90;;;;;;5038286;28;20174;-82
2022/11/15 10:26:10;;;;;;;3.50;2.30;;;14.30;99.90;;;;;;5038978;28;20225;-81
2022/11/15 10:28:36;;;;;;;2.63;2.13;;;14.40;99.90;;;;;;5039243;28;20174;-81
2022/11/15 10:31:02;;;;;;;2.57;2.07;;;14.40;99.90;;;;;;5040574;28;20197;-81
2022/11/15 10:33:33;;;;;;;2.53;2.10;;;14.40;99.90;;;;;;5038955;28;20228;-81
2022/11/15 10:36:19;;;;;;;3.77;2.20;;;14.60;99.90;;;;;;5038656;28;20257;-81
2022/11/15 10:38:48;;;;;;;2.77;2.03;;;14.80;99.90;;;;;;5038929;28;20178;-82
2022/11/15 10:41:15;;;;;;;2.90;2.40;;;14.90;99.90;;;;;;5038427;28;20210;-81
2022/11/15 10:43:41;;;;;;;3.37;2.10;;;15.10;99.90;;;;;;5037417;28;20185;-82
2022/11/15 10:46:22;;;;;;;3.17;2.20;;;15.20;99.90;;;;;;5037313;28;20194;-82
2022/11/15 10:48:47;;;;;;;2.97;2.27;;;15.50;99.90;;;;;;5037715;28;20694;-82
2022/11/15 10:51:30;;;;;;;2.03;1.83;;;15.50;99.90;;;;;;5038562;28;20182;-81
2022/11/15 10:53:58;;;;;;;2.93;2.23;;;15.60;99.90;;;;;;5036569;28;20205;-81
2022/11/15 10:56:26;;;;;;;2.03;1.83;;;15.60;99.90;;;;;;5053660;28;20675;-81
2022/11/15 10:58:55;;;;;;;1.97;1.70;;;15.40;99.90;;;;;;5038647;28;20186;-83
2022/11/15 11:01:26;;;;;;;2.13;1.90;;;15.30;99.90;;;;;;5036430;28;20175;-81
2022/11/15 11:04:03;;;;;;;2.47;1.90;;;15.10;99.90;;;;;;5037621;28;20210;-84
2022/11/15 11:06:29;;;;;;;4.50;2.20;;;15.00;99.90;;;;;;5038149;28;20200;-84
2022/11/15 11:09:01;;;;;;;2.87;2.00;;;14.90;99.90;;;;;;5037458;28;20555;-84
2022/11/15 11:11:47;;;;;;;2.50;1.70;;;14.80;99.90;;;;;;5034723;28;20648;-82
2022/11/15 11:14:27;;;;;;;2.00;1.80;;;14.70;99.90;;;;;;5051799;28;20184;-83
2022/11/15 11:16:52;;;;;;;2.90;1.67;;;14.80;99.90;;;;;;5036924;28;20589;-84
2022/11/15 11:19:29;;;;;;;3.43;1.97;;;15.10;99.90;;;;;;5034631;28;20206;-83
2022/11/15 11:21:55;;;;;;;3.17;2.10;;;15.20;99.90;;;;;;5034807;28;20213;-84
2022/11/15 11:24:40;;;;;;;1.90;1.70;;;15.40;99.90;;;;;;5034987;28;20175;-83
2022/11/15 11:27:24;;;;;;;3.03;1.93;;;15.40;99.90;;;;;;5034733;28;20238;-84
2022/11/15 11:30:06;;;;;;;2.23;1.83;;;15.50;99.90;;;;;;5035545;28;20174;-83
2022/11/15 11:32:55;;;;;;;4.80;1.90;;;15.60;99.90;;;;;;5037163;28;20256;-84
2022/11/15 11:35:32;;;;;;;2.70;1.80;;;15.50;99.90;;;;;;5041728;28;20209;-85
2022/11/15 11:38:06;;;;;;;2.13;1.63;;;15.60;99.90;;;;;;5039895;28;20197;-82
2022/11/15 11:40:43;;;;;;;2.93;1.73;;;15.70;99.90;;;;;;5036426;28;20300;-83
2022/11/15 11:43:44;;;;;;;1.93;1.50;;;15.40;99.90;;;;;;5040661;28;20170;-83
2022/11/15 11:46:18;;;;;;;3.23;1.77;;;15.10;99.90;;;;;;5043061;28;20212;-82
2022/11/15 11:49:02;;;;;;;1.80;1.60;;;14.90;99.90;;;;;;5041674;28;20170;-83
2022/11/15 11:51:34;;;;;;;2.30;1.80;;;14.70;99.90;;;;;;5034504;28;20238;-83
2022/11/15 11:54:16;;;;;;;2.40;1.70;;;14.60;99.90;;;;;;5033007;28;20206;-84
2022/11/15 11:56:44;;;;;;;4.13;1.70;;;14.50;99.90;;;;;;5029850;28;20211;-84
2022/11/15 11:59:35;;;;;;;3.60;1.90;;;14.30;99.90;;;;;;5032333;28;20178;-83
2022/11/15 12:02:24;;;;;;;2.63;1.90;;;14.30;99.90;;;;;;5048165;28;20177;-87
2022/11/15 12:04:56;;;;;;;3.63;1.87;;;14.30;99.90;;;;;;5032366;28;20197;-87
2022/11/15 12:07:31;;;;;;;2.90;1.90;;;14.30;99.90;;;;;;5032780;28;20176;-84
2022/11/15 12:10:22;;;;;;;2.90;1.90;;;14.30;99.90;;;;;;5029495;28;20190;-83
2022/11/15 12:13:25;;;;;;;2.27;1.83;;;14.30;99.90;;;;;;5033312;28;20174;-83
2022/11/15 12:16:01;;;;;;;2.53;2.00;;;14.20;99.90;;;;;;5009758;28;20672;-83
2022/11/15 12:18:27;;;;;;;2.20;2.00;;;14.00;99.90;;;;;;5011013;28;20649;-83
2022/11/15 12:20:59;;;;;;;3.23;2.10;;;14.00;99.90;;;;;;5013076;28;20799;-83
2022/11/15 12:23:32;;;;;;;2.20;2.00;;;14.00;99.90;;;;;;5015059;28;20175;-83
2022/11/15 12:26:07;;;;;;;2.93;1.90;;;14.00;99.90;;;;;;5049947;28;20285;-84
2022/11/15 12:28:42;;;;;;;2.20;1.83;;;14.20;99.90;;;;;;5032923;28;20223;-84
2022/11/15 12:31:33;;;;;;;3.30;1.70;;;14.40;99.90;;;;;;5033149;28;20174;-83
2022/11/15 12:34:00;;;;;;;2.53;2.00;;;14.60;99.90;;;;;;5032481;28;20178;-83
2022/11/15 12:36:39;;;;;;;2.87;1.80;;;14.50;99.90;;;;;;5033427;28;20205;-82
2022/11/15 12:39:09;;;;;;;2.53;1.73;;;14.40;99.90;;;;;;5031790;28;20194;-83
2022/11/15 12:41:37;;;;;;;4.63;1.90;;;14.30;99.90;;;;;;5032575;28;20332;-83
2022/11/15 12:44:04;;;;;;;2.87;1.67;;;14.10;99.90;;;;;;5032284;28;20679;-84
2022/11/15 12:46:29;;;;;;;2.93;2.10;;;14.20;99.90;;;;;;5034981;28;20186;-83
2022/11/15 12:49:16;;;;;;;2.27;1.90;;;14.10;99.90;;;;;;5033964;28;20171;-83
2022/11/15 12:51:42;;;;;;;2.23;1.90;;;14.00;99.90;;;;;;5026294;28;20197;-83
2022/11/15 12:54:30;;;;;;;2.53;1.90;;;14.00;99.90;;;;;;5031388;28;20178;-83
2022/11/15 12:57:08;;;;;;;2.07;1.87;;;13.90;99.90;;;;;;5035467;28;20185;-83
2022/11/15 13:00:01;;;;;;;2.37;1.77;;;13.90;99.90;;;;;;5033714;28;20284;-83
2022/11/15 13:02:38;;;;;;;2.47;2.00;;;13.90;99.90;;;;;;5031967;28;20178;-83
2022/11/15 13:05:33;;;;;;;1.70;1.60;;;13.90;99.90;;;;;;5029080;28;20240;-83
2022/11/15 13:07:58;;;;;;;2.50;1.93;;;13.90;99.90;;;;;;5005389;28;20578;-83
2022/11/15 13:10:29;;;;;;;2.43;1.60;;;13.80;99.90;;;;;;5037051;28;20691;-84
2022/11/15 13:13:03;;;;;;;3.30;1.80;;;13.80;99.90;;;;;;5035488;28;20473;-83
2022/11/15 13:15:38;;;;;;;4.00;1.50;;;13.70;99.90;;;;;;5037415;28;20200;-85
2022/11/15 13:18:25;;;;;;;1.90;1.40;;;13.70;99.90;;;;;;5034665;28;20188;-83
2022/11/15 13:20:51;;;;;;;1.50;1.30;;;13.60;99.90;;;;;;5035584;28;20194;-83